Time;durP1;ratioP1;P1;durP2;ratioP2;P2;SDS_P1;SDS_P2;PMS_P1;PMS_P2;Temp;Humidity;BMP_temperature;BMP_pressure;BME280_temperature;BME280_humidity;BME280_pressure;Samples;Min_cycle;Max_cycle;Signal;HPM_P1;HPM_P2
2023/04/06 07:04:34;;;;;;;0.97;0.97;;;;;;;;;;7429111;19;20153;-95
2023/04/06 07:07:03;;;;;;;0.27;0.27;;;;;;;;;;7427713;19;20137;-95
2023/04/06 07:09:33;;;;;;;0.40;0.40;;;;;;;;;;7426230;19;20590;-96
2023/04/06 07:12:01;;;;;;;0.30;0.30;;;;;;;;;;7428804;19;20150;-96
2023/04/06 07:14:49;;;;;;;0.60;0.60;;;;;;;;;;7429102;19;20168;-96
2023/04/06 07:24:27;;;;;;;0.40;0.40;;;;;;;;;;7427213;19;20145;-96
2023/04/06 07:27:03;;;;;;;1.43;1.33;;;;;;;;;;7421869;19;20148;-96
2023/04/06 07:29:41;;;;;;;1.83;1.20;;;;;;;;;;7427256;19;20133;-96
2023/04/06 07:32:15;;;;;;;1.07;1.07;;;;;;;;;;7431728;19;20144;-96
2023/04/06 07:34:53;;;;;;;0.73;0.73;;;;;;;;;;7433287;19;20151;-96
2023/04/06 07:37:38;;;;;;;0.70;0.67;;;;;;;;;;7429401;19;20137;-96
2023/04/06 07:40:11;;;;;;;0.30;0.30;;;;;;;;;;7432464;19;20129;-96
2023/04/06 07:42:40;;;;;;;1.07;0.97;;;;;;;;;;7431778;19;20133;-96
2023/04/06 07:45:18;;;;;;;0.77;0.77;;;;;;;;;;7430526;19;20181;-96
2023/04/06 07:47:48;;;;;;;0.43;0.43;;;;;;;;;;7432602;19;20136;-96
2023/04/06 07:50:19;;;;;;;1.27;1.07;;;;;;;;;;7432436;19;20133;-96
2023/04/06 07:52:54;;;;;;;0.53;0.40;;;;;;;;;;7430468;19;20136;-96
2023/04/06 07:55:23;;;;;;;0.30;0.30;;;;;;;;;;7432069;19;20164;-96
2023/04/06 07:57:51;;;;;;;0.30;0.30;;;;;;;;;;7430187;19;20140;-95
2023/04/06 08:00:24;;;;;;;0.30;0.30;;;;;;;;;;7431787;19;20140;-95
2023/04/06 08:02:51;;;;;;;1.20;1.10;;;;;;;;;;7429126;19;20137;-94
2023/04/06 08:05:21;;;;;;;1.00;1.00;;;;;;;;;;7430967;19;20149;-96
2023/04/06 08:08:13;;;;;;;1.23;1.13;;;;;;;;;;7431676;19;20191;-96
2023/04/06 08:10:49;;;;;;;0.63;0.63;;;;;;;;;;7430890;19;20141;-96
2023/04/06 08:13:18;;;;;;;0.57;0.57;;;;;;;;;;7429615;19;20153;-96
2023/04/06 08:15:56;;;;;;;0.53;0.53;;;;;;;;;;7428677;19;20189;-96
2023/04/06 08:18:33;;;;;;;0.47;0.47;;;;;;;;;;7429106;19;20133;-96
2023/04/06 08:21:19;;;;;;;1.70;0.70;;;;;;;;;;7429194;19;20129;-95
2023/04/06 08:24:14;;;;;;;0.60;0.60;;;;;;;;;;7428348;19;20148;-96
2023/04/06 08:27:11;;;;;;;0.93;0.93;;;;;;;;;;7431646;19;20159;-96
2023/04/06 08:29:52;;;;;;;0.70;0.70;;;;;;;;;;7430210;19;20150;-96
2023/04/06 08:32:47;;;;;;;1.10;0.77;;;;;;;;;;7433106;19;20148;-96
2023/04/06 08:35:41;;;;;;;0.47;0.47;;;;;;;;;;7438148;19;20200;-96
2023/04/06 08:38:34;;;;;;;1.00;1.00;;;;;;;;;;7438963;19;20141;-96
2023/04/06 08:41:18;;;;;;;0.93;0.93;;;;;;;;;;7436979;19;20133;-96
2023/04/06 08:44:01;;;;;;;0.30;0.30;;;;;;;;;;7436115;19;20141;-96
2023/04/06 08:46:33;;;;;;;0.33;0.33;;;;;;;;;;7435862;19;20164;-96
2023/04/06 08:49:07;;;;;;;0.67;0.67;;;;;;;;;;7430759;19;20132;-96
2023/04/06 08:51:38;;;;;;;0.47;0.47;;;;;;;;;;7433922;19;20148;-96
2023/04/06 08:54:18;;;;;;;0.83;0.53;;;;;;;;;;7433608;19;20129;-96
2023/04/06 08:57:48;;;;;;;1.37;1.00;;;;;;;;;;7435666;19;20136;-96
2023/04/06 09:07:40;;;;;;;1.63;1.53;;;;;;;;;;7440746;19;20298;-96
2023/04/06 09:10:41;;;;;;;0.33;0.33;;;;;;;;;;7438996;19;20142;-96
2023/04/06 09:13:15;;;;;;;0.80;0.80;;;;;;;;;;7432857;19;20163;-96
2023/04/06 09:16:18;;;;;;;1.03;1.00;;;;;;;;;;7432768;19;20167;-96
2023/04/06 09:19:45;;;;;;;0.60;0.60;;;;;;;;;;7439825;19;20121;-96
2023/04/06 09:22:45;;;;;;;0.60;0.60;;;;;;;;;;7436817;19;20128;-96
2023/04/06 09:25:39;;;;;;;1.13;1.10;;;;;;;;;;7430335;19;20164;-96
2023/04/06 09:28:06;;;;;;;0.40;0.40;;;;;;;;;;7426250;19;20150;-96
2023/04/06 09:30:35;;;;;;;0.40;0.40;;;;;;;;;;7426931;19;20156;-96
2023/04/06 09:33:02;;;;;;;0.57;0.57;;;;;;;;;;7426385;19;20133;-96
2023/04/06 09:35:31;;;;;;;0.37;0.37;;;;;;;;;;7423925;19;20172;-96
2023/04/06 09:37:57;;;;;;;0.70;0.70;;;;;;;;;;7425307;19;20161;-96
2023/04/06 09:40:25;;;;;;;0.63;0.63;;;;;;;;;;7427856;19;20133;-96
2023/04/06 09:42:53;;;;;;;4.73;1.60;;;;;;;;;;7427280;19;20140;-96
2023/04/06 09:45:20;;;;;;;0.70;0.70;;;;;;;;;;7427112;19;20161;-96
2023/04/06 09:47:48;;;;;;;0.80;0.80;;;;;;;;;;7428027;19;20125;-96
2023/04/06 09:50:16;;;;;;;0.70;0.70;;;;;;;;;;7425401;19;20137;-95
2023/04/06 09:52:50;;;;;;;0.40;0.40;;;;;;;;;;7429329;19;20129;-96
2023/04/06 09:55:31;;;;;;;0.70;0.70;;;;;;;;;;7429387;19;20161;-94
2023/04/06 09:58:03;;;;;;;1.40;1.30;;;;;;;;;;7427227;19;20177;-95
2023/04/06 10:00:50;;;;;;;0.73;0.73;;;;;;;;;;7426633;19;20160;-95
2023/04/06 10:03:55;;;;;;;0.30;0.30;;;;;;;;;;7426534;19;20144;-96
2023/04/06 10:06:28;;;;;;;0.30;0.30;;;;;;;;;;7427296;19;20153;-96
2023/04/06 10:08:59;;;;;;;0.30;0.30;;;;;;;;;;7426803;19;20137;-96
2023/04/06 10:11:26;;;;;;;0.70;0.70;;;;;;;;;;7421983;19;20147;-96
2023/04/06 10:13:52;;;;;;;0.93;0.93;;;;;;;;;;7422348;19;20137;-96
2023/04/06 10:16:19;;;;;;;0.70;0.70;;;;;;;;;;7401195;19;20594;-90
2023/04/06 10:18:52;;;;;;;0.67;0.67;;;;;;;;;;7391797;19;20133;-89
2023/04/06 10:21:25;;;;;;;0.70;0.70;;;;;;;;;;7395322;19;20169;-86
2023/04/06 10:24:02;;;;;;;0.30;0.30;;;;;;;;;;7397649;19;20125;-86
2023/04/06 10:26:29;;;;;;;0.60;0.60;;;;;;;;;;7397039;19;20148;-91
2023/04/06 10:29:02;;;;;;;0.40;0.40;;;;;;;;;;7397386;19;20140;-88
2023/04/06 10:31:29;;;;;;;0.53;0.53;;;;;;;;;;7395864;19;20177;-91
2023/04/06 10:33:57;;;;;;;1.87;1.13;;;;;;;;;;7396965;19;20621;-88
2023/04/06 10:36:26;;;;;;;0.43;0.43;;;;;;;;;;7392961;19;20137;-88
2023/04/06 10:39:02;;;;;;;1.93;0.67;;;;;;;;;;7397530;19;20165;-91
2023/04/06 10:41:33;;;;;;;0.30;0.30;;;;;;;;;;7391615;19;20180;-89
2023/04/06 10:44:01;;;;;;;2.77;1.20;;;;;;;;;;7395497;19;20132;-89
2023/04/06 10:46:29;;;;;;;0.93;0.93;;;;;;;;;;7395299;19;20133;-90
2023/04/06 10:48:56;;;;;;;0.40;0.40;;;;;;;;;;7394952;19;20141;-90
2023/04/06 10:51:27;;;;;;;0.60;0.60;;;;;;;;;;7394815;19;20153;-89
2023/04/06 10:53:55;;;;;;;0.80;0.77;;;;;;;;;;7396574;19;20146;-90
2023/04/06 10:56:25;;;;;;;0.57;0.37;;;;;;;;;;7407829;19;20132;-89
2023/04/06 10:58:53;;;;;;;0.50;0.50;;;;;;;;;;7398725;19;20151;-89
2023/04/06 11:01:21;;;;;;;0.93;0.93;;;;;;;;;;7393966;19;20216;-89
2023/04/06 11:03:49;;;;;;;0.30;0.30;;;;;;;;;;7393999;19;20164;-89
2023/04/06 11:06:23;;;;;;;0.57;0.57;;;;;;;;;;7395381;19;20484;-88
2023/04/06 11:08:51;;;;;;;0.40;0.40;;;;;;;;;;7394616;19;20160;-88
2023/04/06 11:11:20;;;;;;;0.40;0.40;;;;;;;;;;7392722;19;20193;-87
2023/04/06 11:13:57;;;;;;;0.70;0.70;;;;;;;;;;7395060;19;20128;-89
2023/04/06 11:16:26;;;;;;;0.50;0.50;;;;;;;;;;7394933;19;20136;-90
2023/04/06 11:19:03;;;;;;;0.40;0.40;;;;;;;;;;7394631;19;20508;-90
2023/04/06 11:21:49;;;;;;;3.63;1.10;;;;;;;;;;7395183;19;20166;-89
2023/04/06 11:24:23;;;;;;;0.40;0.40;;;;;;;;;;7398869;19;20133;-88
2023/04/06 11:26:58;;;;;;;0.73;0.73;;;;;;;;;;7397332;19;20485;-88
2023/04/06 11:29:30;;;;;;;0.77;0.77;;;;;;;;;;7397123;19;20200;-88
2023/04/06 11:32:07;;;;;;;0.53;0.53;;;;;;;;;;7394242;19;20625;-88
2023/04/06 11:34:39;;;;;;;0.53;0.53;;;;;;;;;;7396065;19;20637;-86
2023/04/06 11:37:10;;;;;;;1.67;1.23;;;;;;;;;;7396185;19;20157;-87
2023/04/06 11:39:40;;;;;;;2.73;0.63;;;;;;;;;;7395994;19;20145;-87
2023/04/06 11:42:07;;;;;;;1.73;0.83;;;;;;;;;;7391915;19;20203;-87
2023/04/06 11:44:36;;;;;;;1.05;1.00;;;;;;;;;;7396005;19;20141;-87
2023/04/06 11:47:04;;;;;;;0.98;0.95;;;;;;;;;;7391550;19;20165;-86
2023/04/06 11:49:32;;;;;;;1.25;1.15;;;;;;;;;;7394644;19;20132;-86
2023/04/06 11:52:00;;;;;;;0.40;0.40;;;;;;;;;;7393462;19;20184;-87
2023/04/06 11:54:37;;;;;;;0.82;0.82;;;;;;;;;;7395608;19;20484;-87
2023/04/06 11:57:05;;;;;;;3.17;1.58;;;;;;;;;;7395148;19;20137;-87
2023/04/06 11:59:32;;;;;;;0.73;0.73;;;;;;;;;;7396221;19;20618;-87
2023/04/06 12:01:59;;;;;;;2.08;1.17;;;;;;;;;;7394658;19;20189;-86
2023/04/06 12:04:25;;;;;;;1.35;1.25;;;;;;;;;;7397318;19;20616;-87
2023/04/06 12:06:52;;;;;;;0.77;0.75;;;;;;;;;;7402646;19;20133;-87
2023/04/06 12:09:19;;;;;;;1.02;0.93;;;;;;;;;;7401932;19;20149;-87
2023/04/06 12:11:45;;;;;;;1.95;0.65;;;;;;;;;;7400890;19;20624;-87
2023/04/06 12:14:13;;;;;;;0.90;0.90;;;;;;;;;;7402353;19;20481;-87
2023/04/06 12:16:40;;;;;;;2.08;1.75;;;;;;;;;;7403023;19;20141;-87
2023/04/06 12:19:07;;;;;;;1.13;1.02;;;;;;;;;;7402189;19;20145;-87
2023/04/06 12:21:40;;;;;;;2.83;1.48;;;;;;;;;;7399475;19;20161;-87
2023/04/06 12:24:06;;;;;;;1.13;1.13;;;;;;;;;;7401794;19;20556;-87
2023/04/06 12:26:33;;;;;;;1.23;0.75;;;;;;;;;;7402458;19;20148;-87
2023/04/06 12:29:06;;;;;;;1.17;0.75;;;;;;;;;;7401934;19;20165;-86
2023/04/06 12:31:34;;;;;;;1.50;0.88;;;;;;;;;;7400607;19;20169;-87
2023/04/06 12:34:02;;;;;;;0.80;0.80;;;;;;;;;;7401849;19;20169;-87
2023/04/06 12:36:30;;;;;;;0.40;0.40;;;;;;;;;;7402695;19;20137;-87
2023/04/06 12:38:57;;;;;;;0.90;0.90;;;;;;;;;;7401324;19;20176;-87
2023/04/06 12:41:24;;;;;;;0.68;0.68;;;;;;;;;;7400409;19;20177;-88
2023/04/06 12:43:51;;;;;;;1.25;0.60;;;;;;;;;;7400167;19;20154;-87
2023/04/06 12:46:18;;;;;;;2.20;0.77;;;;;;;;;;7401724;19;20167;-88
2023/04/06 12:48:45;;;;;;;0.43;0.43;;;;;;;;;;7400180;19;20153;-87
2023/04/06 12:51:11;;;;;;;0.50;0.50;;;;;;;;;;7399193;19;20183;-87
2023/04/06 12:53:38;;;;;;;0.77;0.77;;;;;;;;;;7400529;19;20523;-87
2023/04/06 12:56:17;;;;;;;1.05;1.05;;;;;;;;;;7400677;19;20141;-88
2023/04/06 12:58:44;;;;;;;1.70;1.45;;;;;;;;;;7400211;19;20527;-87
2023/04/06 13:01:14;;;;;;;0.80;0.80;;;;;;;;;;7399890;19;20153;-88
2023/04/06 13:03:41;;;;;;;0.82;0.73;;;;;;;;;;7400365;19;20144;-88
2023/04/06 13:06:08;;;;;;;1.50;1.40;;;;;;;;;;7401149;19;20132;-88
2023/04/06 13:08:37;;;;;;;2.85;0.63;;;;;;;;;;7397864;19;20165;-88
2023/04/06 13:11:04;;;;;;;0.70;0.70;;;;;;;;;;7398621;19;20197;-88
2023/04/06 13:13:31;;;;;;;0.75;0.75;;;;;;;;;;7399955;19;20133;-88
2023/04/06 13:16:03;;;;;;;0.52;0.52;;;;;;;;;;7399031;19;20137;-88
2023/04/06 13:18:31;;;;;;;1.00;1.00;;;;;;;;;;7400498;19;20606;-87
2023/04/06 13:20:59;;;;;;;0.70;0.70;;;;;;;;;;7399794;19;20188;-88
2023/04/06 13:23:26;;;;;;;0.82;0.82;;;;;;;;;;7398405;19;20169;-87
2023/04/06 13:26:02;;;;;;;2.72;0.90;;;;;;;;;;7399750;19;20164;-87
2023/04/06 13:28:30;;;;;;;0.80;0.80;;;;;;;;;;7395661;19;20152;-88
2023/04/06 13:30:58;;;;;;;1.13;1.02;;;;;;;;;;7393452;19;20196;-88
2023/04/06 13:33:25;;;;;;;0.75;0.75;;;;;;;;;;7393515;19;20161;-88
2023/04/06 13:35:52;;;;;;;1.00;0.68;;;;;;;;;;7390537;19;20137;-88
2023/04/06 13:38:20;;;;;;;0.90;0.90;;;;;;;;;;7399323;19;20157;-88
2023/04/06 13:40:46;;;;;;;1.00;1.00;;;;;;;;;;7397924;19;20149;-88
2023/04/06 13:43:13;;;;;;;0.47;0.47;;;;;;;;;;7398062;19;20184;-88
2023/04/06 13:45:39;;;;;;;0.50;0.50;;;;;;;;;;7398110;19;20167;-88
2023/04/06 13:48:06;;;;;;;4.40;1.15;;;;;;;;;;7400106;19;20658;-87
2023/04/06 13:50:34;;;;;;;0.93;0.93;;;;;;;;;;7402792;19;20153;-89
2023/04/06 13:53:00;;;;;;;0.55;0.55;;;;;;;;;;7405201;19;20151;-89
2023/04/06 13:55:27;;;;;;;0.90;0.90;;;;;;;;;;7406893;19;20168;-88
2023/04/06 13:57:54;;;;;;;0.77;0.70;;;;;;;;;;7403056;19;20161;-87
2023/04/06 14:00:21;;;;;;;0.77;0.77;;;;;;;;;;7396926;19;20133;-86
2023/04/06 14:02:48;;;;;;;0.90;0.90;;;;;;;;;;7398749;19;20161;-87
2023/04/06 14:05:15;;;;;;;0.45;0.45;;;;;;;;;;7397752;19;20168;-87
2023/04/06 14:07:41;;;;;;;0.68;0.68;;;;;;;;;;7395675;19;20140;-87
